createdAt,value
2023-08-05T00:02:18.109Z,56.11
2023-08-05T00:04:46.484Z,56.02
2023-08-05T00:07:16.141Z,56.39
2023-08-05T00:09:44.711Z,56.37
2023-08-05T00:12:13.111Z,56.38
2023-08-05T00:14:41.542Z,54.99
2023-08-05T00:17:09.932Z,56.69
2023-08-05T00:19:38.334Z,59.00
2023-08-05T00:22:06.856Z,58.28
2023-08-05T00:24:36.541Z,58.33
2023-08-05T00:27:05.084Z,59.00
2023-08-05T00:29:33.606Z,59.72
2023-08-05T00:32:01.966Z,61.09
2023-08-05T00:34:30.303Z,60.17
2023-08-05T00:36:58.624Z,60.70
2023-08-05T00:39:26.947Z,59.62
2023-08-05T00:41:56.644Z,60.75
2023-08-05T00:44:25.908Z,60.97
2023-08-05T00:46:54.615Z,61.62
2023-08-05T00:49:23.250Z,61.64
2023-08-05T00:51:52.131Z,62.00
2023-08-05T00:54:20.561Z,61.29
2023-08-05T00:56:49.314Z,61.18
2023-08-05T00:59:20.842Z,61.23
2023-08-05T01:01:49.142Z,61.74
2023-08-05T01:04:17.533Z,62.06
2023-08-05T01:06:47.048Z,61.77
2023-08-05T01:09:15.586Z,62.84
2023-08-05T01:11:44.111Z,63.00
2023-08-05T01:14:12.489Z,62.31
2023-08-05T01:16:42.150Z,62.04
2023-08-05T01:19:18.540Z,62.14
2023-08-05T01:21:53.778Z,61.99
2023-08-05T01:24:27.460Z,61.96
2023-08-05T01:26:57.886Z,62.61
2023-08-05T01:29:26.287Z,62.16
2023-08-05T01:31:55.729Z,62.92
2023-08-05T01:34:24.505Z,62.41
2023-08-05T01:36:52.966Z,60.71
2023-08-05T01:39:21.332Z,62.08
2023-08-05T01:41:49.682Z,62.68
2023-08-05T01:44:19.412Z,62.15
2023-08-05T01:46:47.953Z,62.95
2023-08-05T01:49:16.541Z,63.01
2023-08-05T01:51:44.786Z,63.16
2023-08-05T01:54:13.080Z,62.52
2023-08-05T01:56:41.402Z,62.83
2023-08-05T01:59:09.690Z,63.99
2023-08-05T02:01:47.479Z,62.67
2023-08-05T02:04:16.630Z,63.58
2023-08-05T02:06:45.044Z,63.57
2023-08-05T02:09:13.418Z,64.14
2023-08-05T02:11:41.754Z,64.08
2023-08-05T02:14:10.066Z,64.27
2023-08-05T02:16:38.618Z,64.09
2023-08-05T02:19:10.623Z,63.67
2023-08-05T02:21:41.246Z,64.33
2023-08-05T02:24:11.333Z,64.20
2023-08-05T02:26:40.064Z,63.38
2023-08-05T02:29:08.391Z,64.76
2023-08-05T02:31:36.748Z,64.42
2023-08-05T02:34:05.029Z,63.66
2023-08-05T02:36:34.922Z,63.36
2023-08-05T02:39:03.292Z,66.08
2023-08-05T02:41:31.637Z,69.82
2023-08-05T02:43:59.948Z,71.60
2023-08-05T02:46:28.264Z,72.28
2023-08-05T02:48:56.601Z,71.76
2023-08-05T02:51:24.869Z,71.28
2023-08-05T02:53:54.533Z,70.34
2023-08-05T02:56:22.834Z,73.00
2023-08-05T02:58:51.146Z,72.65
2023-08-05T03:01:19.486Z,71.40
2023-08-05T03:03:47.881Z,70.81
2023-08-05T03:06:16.180Z,70.61
2023-08-05T03:08:44.399Z,69.89
2023-08-05T03:11:14.111Z,69.83
2023-08-05T03:13:42.414Z,71.47
2023-08-05T03:16:12.142Z,74.06
2023-08-05T03:18:40.695Z,72.89
2023-08-05T03:21:09.113Z,72.54
2023-08-05T03:23:37.416Z,71.41
2023-08-05T03:26:05.777Z,70.42
2023-08-05T03:28:35.484Z,71.36
2023-08-05T03:31:03.789Z,71.27
2023-08-05T03:33:32.133Z,71.33
2023-08-05T03:36:00.404Z,71.30
2023-08-05T03:38:28.671Z,71.15
2023-08-05T03:40:57.015Z,68.95
2023-08-05T03:43:25.321Z,69.62
2023-08-05T03:45:55.057Z,71.05
2023-08-05T03:48:23.402Z,72.54
2023-08-05T03:50:51.855Z,72.81
2023-08-05T03:53:20.237Z,72.00
2023-08-05T03:55:48.588Z,74.87
2023-08-05T03:58:19.752Z,75.66
2023-08-05T04:00:48.208Z,77.99
2023-08-05T04:03:18.119Z,78.65
2023-08-05T04:05:48.200Z,78.43
2023-08-05T04:08:17.449Z,76.66
2023-08-05T04:10:45.695Z,80.94
2023-08-05T04:13:13.960Z,80.88
2023-08-05T04:15:42.269Z,78.21
2023-08-05T04:18:10.636Z,77.83
2023-08-05T04:20:41.951Z,76.00
2023-08-05T04:23:10.474Z,76.19
2023-08-05T04:25:39.061Z,74.70
2023-08-05T04:28:07.836Z,74.51
2023-08-05T04:30:36.186Z,74.51
2023-08-05T04:33:04.594Z,73.90
2023-08-05T04:35:32.822Z,74.23
2023-08-05T04:38:02.515Z,73.51
2023-08-05T04:40:30.926Z,72.93
2023-08-05T04:42:59.272Z,73.53
2023-08-05T04:45:27.674Z,72.38
2023-08-05T04:47:55.985Z,73.21
2023-08-05T04:50:24.372Z,72.49
2023-08-05T04:52:52.661Z,72.72
2023-08-05T04:55:22.319Z,71.27
2023-08-05T04:57:54.672Z,71.41
2023-08-05T05:00:23.350Z,70.10
2023-08-05T05:02:51.715Z,70.55
2023-08-05T05:05:20.248Z,70.30
2023-08-05T05:07:48.663Z,69.72
2023-08-05T05:10:17.112Z,67.73
2023-08-05T05:12:46.830Z,67.95
2023-08-05T05:15:15.192Z,70.22
2023-08-05T05:17:43.512Z,70.72
2023-08-05T05:20:13.105Z,70.08
2023-08-05T05:22:41.458Z,70.66
2023-08-05T05:25:10.481Z,71.77
2023-08-05T05:27:38.753Z,71.48
2023-08-05T05:30:09.788Z,73.40
2023-08-05T05:32:38.077Z,72.57
2023-08-05T05:35:07.082Z,73.00
2023-08-05T05:37:35.347Z,73.65
2023-08-05T05:40:04.560Z,74.86
2023-08-05T05:42:32.866Z,75.07
2023-08-05T05:45:01.723Z,73.16
2023-08-05T05:47:31.369Z,72.77
2023-08-05T05:50:00.295Z,72.27
2023-08-05T05:52:28.629Z,71.06
2023-08-05T05:54:56.931Z,70.57
2023-08-05T05:57:25.328Z,70.29
2023-08-05T05:59:53.682Z,69.19
2023-08-05T06:02:22.006Z,69.78
2023-08-05T06:04:51.931Z,68.37
2023-08-05T06:07:20.367Z,66.42
2023-08-05T06:09:48.710Z,65.11
2023-08-05T06:12:19.425Z,64.62
2023-08-05T06:14:47.797Z,63.48
2023-08-05T06:17:16.079Z,61.71
2023-08-05T06:19:44.574Z,62.33
2023-08-05T06:22:14.689Z,61.87
2023-08-05T06:24:43.097Z,60.71
2023-08-05T06:27:11.381Z,60.97
2023-08-05T06:29:39.718Z,58.41
2023-08-05T06:32:08.386Z,57.86
2023-08-05T06:34:36.691Z,57.88
2023-08-05T06:37:05.011Z,57.39
2023-08-05T06:39:35.197Z,57.06
2023-08-05T06:42:03.541Z,56.46
2023-08-05T06:44:31.903Z,55.41
2023-08-05T06:47:00.246Z,55.30
2023-08-05T06:49:28.533Z,53.99
2023-08-05T06:51:58.588Z,51.96
2023-08-05T06:54:27.189Z,51.40
2023-08-05T06:56:56.950Z,50.67
2023-08-05T06:59:25.242Z,51.82
2023-08-05T07:01:53.924Z,51.35
2023-08-05T07:04:22.590Z,49.91
2023-08-05T07:06:50.889Z,49.45
2023-08-05T07:09:19.186Z,49.96
2023-08-05T07:11:47.855Z,50.50
2023-08-05T07:14:17.595Z,48.86
2023-08-05T07:16:45.976Z,49.43
2023-08-05T07:19:14.285Z,50.18
2023-08-05T07:21:42.584Z,48.01
2023-08-05T07:24:11.043Z,47.25
2023-08-05T07:26:39.324Z,47.32
2023-08-05T07:29:07.614Z,46.60
2023-08-05T07:31:37.528Z,46.24
2023-08-05T07:34:06.727Z,45.14
2023-08-05T07:36:35.088Z,45.73
2023-08-05T07:39:07.482Z,44.82
2023-08-05T07:41:37.360Z,44.11
2023-08-05T07:44:05.858Z,44.15
2023-08-05T07:46:37.307Z,42.91
2023-08-05T07:49:08.416Z,42.38
2023-08-05T07:51:36.806Z,42.37
2023-08-05T07:54:05.275Z,42.98
2023-08-05T07:56:36.727Z,41.17
2023-08-05T07:59:05.184Z,39.83
2023-08-05T08:01:35.506Z,40.29
2023-08-05T08:04:04.819Z,39.88
2023-08-05T08:06:34.526Z,39.31
2023-08-05T08:09:02.814Z,36.98
2023-08-05T08:11:31.040Z,37.37
2023-08-05T08:13:59.344Z,38.95
2023-08-05T08:16:27.691Z,38.17
2023-08-05T08:18:55.990Z,38.23
2023-08-05T08:21:24.401Z,39.05
2023-08-05T08:23:54.055Z,39.06
2023-08-05T08:26:22.327Z,37.37
2023-08-05T08:28:50.651Z,36.99
2023-08-05T08:31:19.002Z,38.07
2023-08-05T08:33:47.666Z,37.48
2023-08-05T08:36:15.963Z,36.98
2023-08-05T08:38:44.300Z,37.32
2023-08-05T08:41:14.072Z,37.08
2023-08-05T08:43:44.561Z,36.00
2023-08-05T08:46:14.972Z,36.32
2023-08-05T08:48:45.947Z,35.14
2023-08-05T08:51:14.820Z,35.20
2023-08-05T08:53:45.988Z,35.12
2023-08-05T08:56:15.867Z,34.80
2023-08-05T08:58:45.698Z,34.40
2023-08-05T09:01:17.623Z,35.90
2023-08-05T09:03:50.798Z,35.02
2023-08-05T09:06:19.964Z,34.96
2023-08-05T09:08:48.614Z,34.28
2023-08-05T09:11:18.983Z,34.06
2023-08-05T09:13:47.380Z,32.96
2023-08-05T09:16:16.119Z,33.04
2023-08-05T09:18:54.609Z,31.82
2023-08-05T09:21:24.571Z,31.93
2023-08-05T09:23:55.584Z,32.52
2023-08-05T09:26:33.122Z,32.27
2023-08-05T09:29:02.217Z,33.04
2023-08-05T09:31:30.514Z,32.92
2023-08-05T09:33:58.875Z,31.52
2023-08-05T09:36:28.439Z,34.26
2023-08-05T09:39:07.399Z,31.79
2023-08-05T09:41:37.493Z,32.64
2023-08-05T09:44:08.436Z,33.90
2023-08-05T09:46:42.407Z,33.61
2023-08-05T09:49:13.690Z,32.59
2023-08-05T09:51:44.245Z,30.66
2023-08-05T09:54:17.114Z,29.72
2023-08-05T09:56:47.560Z,30.43
2023-08-05T09:59:17.990Z,30.99
2023-08-05T10:01:48.250Z,30.44
2023-08-05T10:04:18.864Z,30.04
2023-08-05T10:06:49.498Z,29.30
2023-08-05T10:09:17.749Z,28.52
2023-08-05T10:11:48.288Z,28.96
2023-08-05T10:14:17.536Z,28.05
2023-08-05T10:16:47.144Z,28.51
2023-08-05T10:19:15.503Z,28.30
2023-08-05T10:21:43.980Z,28.39
2023-08-05T10:24:12.313Z,27.62
2023-08-05T10:26:45.381Z,26.81
2023-08-05T10:29:30.966Z,25.95
2023-08-05T10:32:12.401Z,25.84
2023-08-05T10:34:40.916Z,25.52
2023-08-05T10:37:09.643Z,25.61
2023-08-05T10:39:45.330Z,24.36
2023-08-05T10:42:38.080Z,25.05
2023-08-05T10:45:10.562Z,25.05
2023-08-05T10:47:49.087Z,24.24
2023-08-05T10:50:17.633Z,24.29
2023-08-05T10:52:46.790Z,23.98
2023-08-05T10:55:15.068Z,24.23
2023-08-05T10:57:49.942Z,23.69
2023-08-05T11:00:25.957Z,22.72
2023-08-05T11:03:33.000Z,23.64
2023-08-05T11:06:06.155Z,23.65
2023-08-05T11:08:35.406Z,22.48
2023-08-05T11:11:04.803Z,22.17
2023-08-05T11:13:38.058Z,22.00
2023-08-05T11:16:09.673Z,23.59
2023-08-05T11:18:38.770Z,23.55
2023-08-05T11:21:08.769Z,23.16
2023-08-05T11:23:41.069Z,22.63
2023-08-05T11:26:10.372Z,23.29
2023-08-05T11:28:44.056Z,23.13
2023-08-05T11:31:23.422Z,21.62
2023-08-05T11:33:51.920Z,21.42
2023-08-05T11:36:25.394Z,19.07
2023-08-05T11:38:56.201Z,20.40
2023-08-05T11:41:25.128Z,21.36
2023-08-05T11:43:53.561Z,22.48
2023-08-05T11:46:40.838Z,22.89
2023-08-05T11:49:14.058Z,21.62
2023-08-05T11:51:49.782Z,19.96
2023-08-05T11:54:29.679Z,18.37
2023-08-05T11:57:00.089Z,20.32
2023-08-05T11:59:46.602Z,20.44
2023-08-05T12:02:19.705Z,20.69
2023-08-05T12:04:49.622Z,19.83
2023-08-05T12:07:19.694Z,19.86
2023-08-05T12:10:05.258Z,19.80
2023-08-05T12:12:33.858Z,18.54
2023-08-05T12:15:13.140Z,17.22
2023-08-05T12:17:48.532Z,18.24
2023-08-05T12:20:19.755Z,17.45
2023-08-05T12:22:49.500Z,16.87
2023-08-05T12:25:19.153Z,17.01
2023-08-05T12:27:48.124Z,18.24
2023-08-05T12:30:17.710Z,15.92
2023-08-05T12:32:47.851Z,17.37
2023-08-05T12:35:16.354Z,17.54
2023-08-05T12:37:45.001Z,19.28
2023-08-05T12:40:14.179Z,19.61
2023-08-05T12:42:43.180Z,20.76
2023-08-05T12:45:12.005Z,19.63
2023-08-05T12:47:41.274Z,20.47
2023-08-05T12:50:11.993Z,19.71
2023-08-05T12:52:40.352Z,19.50
2023-08-05T12:55:10.030Z,19.26
2023-08-05T12:57:38.537Z,19.67
2023-08-05T13:00:07.973Z,19.79
2023-08-05T13:02:36.438Z,18.99
2023-08-05T13:05:05.222Z,19.24
2023-08-05T13:07:34.969Z,19.03
2023-08-05T13:10:03.364Z,19.21
2023-08-05T13:12:31.721Z,19.31
2023-08-05T13:15:00.013Z,19.38
2023-08-05T13:17:28.366Z,20.28
2023-08-05T13:19:56.709Z,20.90
2023-08-05T13:22:25.012Z,20.59
2023-08-05T13:24:55.778Z,20.72
2023-08-05T13:27:24.300Z,21.32
2023-08-05T13:29:52.630Z,20.92
2023-08-05T13:32:20.951Z,21.69
2023-08-05T13:34:49.303Z,21.76
2023-08-05T13:37:17.604Z,22.19
2023-08-05T13:39:51.062Z,22.74
2023-08-05T13:42:20.887Z,22.64
2023-08-05T13:44:49.232Z,22.26
2023-08-05T13:47:17.557Z,21.91
2023-08-05T13:49:45.809Z,21.20
2023-08-05T13:52:14.093Z,22.40
2023-08-05T13:54:42.408Z,21.85
2023-08-05T13:57:10.712Z,21.76
2023-08-05T13:59:40.369Z,22.93
2023-08-05T14:02:08.945Z,23.41
2023-08-05T14:04:37.229Z,23.58
2023-08-05T14:07:06.026Z,23.42
2023-08-05T14:09:34.805Z,23.04
2023-08-05T14:12:03.102Z,23.61
2023-08-05T14:14:31.438Z,23.59
2023-08-05T14:17:01.172Z,23.60
2023-08-05T14:19:29.452Z,23.80
2023-08-05T14:21:57.745Z,23.10
2023-08-05T14:24:25.966Z,22.15
2023-08-05T14:26:54.250Z,21.78
2023-08-05T14:29:22.611Z,21.49
2023-08-05T14:31:51.144Z,21.53
2023-08-05T14:34:21.135Z,22.59
2023-08-05T14:36:49.456Z,24.37
2023-08-05T14:39:17.906Z,26.13
2023-08-05T14:41:46.285Z,26.40
2023-08-05T14:44:14.794Z,27.62
2023-08-05T14:46:42.992Z,28.05
2023-08-05T14:49:11.384Z,27.95
2023-08-05T14:51:41.603Z,28.17
2023-08-05T14:54:10.357Z,26.86
2023-08-05T14:56:40.053Z,26.52
2023-08-05T14:59:10.206Z,26.59
2023-08-05T15:01:38.617Z,26.33
2023-08-05T15:04:07.056Z,27.08
2023-08-05T15:06:35.311Z,27.06
2023-08-05T15:09:05.445Z,27.51
2023-08-05T15:11:33.946Z,26.53
2023-08-05T15:14:02.249Z,27.82
2023-08-05T15:16:30.716Z,27.19
2023-08-05T15:18:59.047Z,28.21
2023-08-05T15:21:27.409Z,29.09
2023-08-05T15:23:58.167Z,29.25
2023-08-05T15:26:28.589Z,29.31
2023-08-05T15:28:56.911Z,28.53
2023-08-05T15:31:25.397Z,29.95
2023-08-05T15:33:53.708Z,29.12
2023-08-05T15:36:22.032Z,29.44
2023-08-05T15:38:50.628Z,29.43
2023-08-05T15:41:20.608Z,28.72
2023-08-05T15:43:50.441Z,29.25
2023-08-05T15:46:18.818Z,28.38
2023-08-05T15:48:47.186Z,28.78
2023-08-05T15:51:15.576Z,28.70
2023-08-05T15:53:43.808Z,28.77
2023-08-05T15:56:12.081Z,28.27
2023-08-05T15:58:40.479Z,28.68
2023-08-05T16:01:10.212Z,29.17
2023-08-05T16:03:38.728Z,29.01
2023-08-05T16:06:08.353Z,29.93
2023-08-05T16:08:37.436Z,29.79
2023-08-05T16:11:07.173Z,29.70
2023-08-05T16:13:35.804Z,29.95
2023-08-05T16:16:12.845Z,31.00
2023-08-05T16:18:42.261Z,31.27
2023-08-05T16:21:12.723Z,31.73
2023-08-05T16:23:41.416Z,31.49
2023-08-05T16:26:11.414Z,31.88
2023-08-05T16:28:39.828Z,32.20
2023-08-05T16:31:08.674Z,32.44
2023-08-05T16:33:39.676Z,32.49
2023-08-05T16:36:09.294Z,33.05
2023-08-05T16:38:38.157Z,32.94
2023-08-05T16:41:07.742Z,32.99
2023-08-05T16:43:36.218Z,33.30
2023-08-05T16:46:04.546Z,33.89
2023-08-05T16:48:32.941Z,34.25
2023-08-05T16:51:03.979Z,34.51
2023-08-05T16:53:34.283Z,34.57
2023-08-05T16:56:03.850Z,34.57
2023-08-05T16:58:32.424Z,34.87
2023-08-05T17:01:00.907Z,34.84
2023-08-05T17:03:29.174Z,34.14
2023-08-05T17:05:57.508Z,34.81
2023-08-05T17:08:27.170Z,34.71
2023-08-05T17:10:55.451Z,34.97
2023-08-05T17:13:23.780Z,35.32
2023-08-05T17:15:52.545Z,35.27
2023-08-05T17:18:20.859Z,35.59
2023-08-05T17:20:54.307Z,36.16
2023-08-05T17:23:22.737Z,36.55
2023-08-05T17:25:52.951Z,36.47
2023-08-05T17:28:21.328Z,36.38
2023-08-05T17:30:50.762Z,37.13
2023-08-05T17:33:19.181Z,37.20
2023-08-05T17:35:52.652Z,37.30
2023-08-05T17:38:21.015Z,36.54
2023-08-05T17:40:50.778Z,36.95
2023-08-05T17:43:20.715Z,36.49
2023-08-05T17:45:58.182Z,36.34
2023-08-05T17:48:26.636Z,37.34
2023-08-05T17:51:00.995Z,37.91
2023-08-05T17:53:29.394Z,37.49
2023-08-05T17:55:57.745Z,37.70
2023-08-05T17:58:27.805Z,38.42
2023-08-05T18:00:56.228Z,38.43
2023-08-05T18:03:24.873Z,38.65
2023-08-05T18:06:01.555Z,38.54
2023-08-05T18:08:36.343Z,37.03
2023-08-05T18:11:05.072Z,38.07
2023-08-05T18:13:35.097Z,38.31
2023-08-05T18:16:03.729Z,38.82
2023-08-05T18:18:32.108Z,38.67
2023-08-05T18:21:00.365Z,38.37
2023-08-05T18:23:28.684Z,38.19
2023-08-05T18:25:57.335Z,38.81
2023-08-05T18:28:25.779Z,38.64
2023-08-05T18:30:55.765Z,38.71
2023-08-05T18:33:23.973Z,38.31
2023-08-05T18:35:52.337Z,38.94
2023-08-05T18:38:20.705Z,39.70
2023-08-05T18:40:48.960Z,39.06
2023-08-05T18:43:18.370Z,39.14
2023-08-05T18:45:46.675Z,38.96
2023-08-05T18:48:16.356Z,39.45
2023-08-05T18:50:46.454Z,39.94
2023-08-05T18:53:14.739Z,39.05
2023-08-05T18:55:43.049Z,39.45
2023-08-05T18:58:11.622Z,39.37
2023-08-05T19:00:41.627Z,39.59
2023-08-05T19:03:09.965Z,40.18
2023-08-05T19:05:39.880Z,40.54
2023-08-05T19:08:08.249Z,40.53
2023-08-05T19:10:45.512Z,40.25
2023-08-05T19:13:13.716Z,39.93
2023-08-05T19:15:42.198Z,41.05
2023-08-05T19:18:13.263Z,41.73
2023-08-05T19:20:42.966Z,41.32
2023-08-05T19:23:11.453Z,41.57
2023-08-05T19:25:39.801Z,41.95
2023-08-05T19:28:08.124Z,42.17
2023-08-05T19:30:38.874Z,42.10
2023-08-05T19:33:07.316Z,42.25
2023-08-05T19:35:35.633Z,42.96
2023-08-05T19:38:05.279Z,42.39
2023-08-05T19:40:33.695Z,43.38
2023-08-05T19:43:02.968Z,43.11
2023-08-05T19:45:31.342Z,42.21
2023-08-05T19:47:59.627Z,43.12
2023-08-05T19:50:27.957Z,42.69
2023-08-05T19:52:56.232Z,42.92
2023-08-05T19:55:30.319Z,43.25
2023-08-05T19:57:58.635Z,42.71
2023-08-05T20:00:27.895Z,41.12
2023-08-05T20:02:57.459Z,42.19
2023-08-05T20:05:25.971Z,43.99
2023-08-05T20:07:54.773Z,42.48
2023-08-05T20:10:23.030Z,42.62
2023-08-05T20:12:52.796Z,43.92
2023-08-05T20:15:21.114Z,43.27
2023-08-05T20:17:49.504Z,42.83
2023-08-05T20:20:17.933Z,43.93
2023-08-05T20:22:46.568Z,43.85
2023-08-05T20:25:14.874Z,43.10
2023-08-05T20:27:43.205Z,44.15
2023-08-05T20:30:14.171Z,42.01
2023-08-05T20:32:43.350Z,43.81
2023-08-05T20:35:11.937Z,44.48
2023-08-05T20:37:40.422Z,44.54
2023-08-05T20:40:09.984Z,44.84
2023-08-05T20:42:38.237Z,43.94
2023-08-05T20:45:08.766Z,43.72
2023-08-05T20:47:38.514Z,45.37
2023-08-05T20:50:08.072Z,45.44
2023-08-05T20:52:36.409Z,45.67
2023-08-05T20:55:04.816Z,45.76
2023-08-05T20:57:33.296Z,46.32
2023-08-05T21:00:01.690Z,46.48
2023-08-05T21:02:30.112Z,45.63
2023-08-05T21:05:01.170Z,46.00
2023-08-05T21:07:32.302Z,47.21
2023-08-05T21:10:00.705Z,46.91
2023-08-05T21:12:28.917Z,45.94
2023-08-05T21:14:57.274Z,45.26
2023-08-05T21:17:25.575Z,46.46
2023-08-05T21:19:54.025Z,45.93
2023-08-05T21:22:23.857Z,45.81
2023-08-05T21:24:52.229Z,45.33
2023-08-05T21:27:20.601Z,46.30
2023-08-05T21:29:49.092Z,46.28
2023-08-05T21:32:17.463Z,47.16
2023-08-05T21:34:46.377Z,47.20
2023-08-05T21:37:14.754Z,47.28
2023-08-05T21:39:47.162Z,48.60
2023-08-05T21:42:15.612Z,48.68
2023-08-05T21:44:43.889Z,48.38
2023-08-05T21:47:12.250Z,48.68
2023-08-05T21:49:40.845Z,48.41
2023-08-05T21:52:09.458Z,48.24
2023-08-05T21:54:37.782Z,47.70
2023-08-05T21:57:08.830Z,47.88
2023-08-05T21:59:37.502Z,47.61
2023-08-05T22:02:06.771Z,47.08
2023-08-05T22:04:35.404Z,47.13
2023-08-05T22:07:04.061Z,46.45
2023-08-05T22:09:32.334Z,46.76
2023-08-05T22:12:05.129Z,48.73
2023-08-05T22:14:36.529Z,49.40
2023-08-05T22:17:04.942Z,48.86
2023-08-05T22:19:33.320Z,48.36
2023-08-05T22:22:01.648Z,48.03
2023-08-05T22:27:03.415Z,47.63
2023-08-05T22:29:31.697Z,48.21
2023-08-05T22:32:01.329Z,48.30
2023-08-05T22:34:29.732Z,48.76
2023-08-05T22:36:58.060Z,48.77
2023-08-05T22:39:26.402Z,48.36
2023-08-05T22:41:55.035Z,47.20
2023-08-05T22:44:23.525Z,47.62
2023-08-05T22:46:52.324Z,47.51
2023-08-05T22:49:22.479Z,48.83
2023-08-05T22:51:51.084Z,49.19
2023-08-05T22:54:19.551Z,49.35
2023-08-05T22:56:47.877Z,48.44
2023-08-05T22:59:16.290Z,48.75
2023-08-05T23:01:44.660Z,49.04
2023-08-05T23:04:13.026Z,49.01
2023-08-05T23:06:42.770Z,48.40
2023-08-05T23:09:11.120Z,49.46
2023-08-05T23:11:39.437Z,51.47
2023-08-05T23:14:08.698Z,55.10
2023-08-05T23:16:37.134Z,58.00
2023-08-05T23:19:07.137Z,60.55
2023-08-05T23:21:35.454Z,62.42
2023-08-05T23:24:05.195Z,63.70
2023-08-05T23:26:33.667Z,64.92
2023-08-05T23:29:02.058Z,65.19
2023-08-05T23:31:30.372Z,64.67
2023-08-05T23:33:59.690Z,63.83
2023-08-05T23:36:28.434Z,62.75
2023-08-05T23:38:56.822Z,63.57
2023-08-05T23:41:26.555Z,65.34
2023-08-05T23:43:54.917Z,62.38
2023-08-05T23:46:23.244Z,63.83
2023-08-05T23:48:51.730Z,61.38
2023-08-05T23:51:21.004Z,64.44
2023-08-05T23:53:49.495Z,66.84
2023-08-05T23:56:17.745Z,67.90
2023-08-05T23:58:47.515Z,68.57
